VLG7339 GMMI-LEBL
Flight info
| Callsign | VLG7339 |
|---|---|
| Flight time | 2h 1m |
| Altitude | 38000 |
| Route | ESS UN871 OSDAM UM985 BARPA DCT XAVIR DCT PIMOS DCT RIXUR DCT PEPAS DCT ARPEX DCT KOSEL DCT BUDIT DCT ETURA DCT TOSTO DCT OLPOS DCT BEGOX DCT VLC L34 CASIM DCT MATEX |
| Aircraft | A320/M-SDE3FGHIRWY/LB1 |
Departure
| Time | 2026-05-06 16:29 |
|---|---|
| Airport | Essaouira-Mogador Airport (GMMI) |
Arrival
| Time | 2026-05-06 18:30 |
|---|---|
| Airport | Josep Tarradellas Barcelona-El Prat Airport (LEBL) |
| Time | Latitude | Longitude | Altitude | Speed | Heading |
|---|---|---|---|---|---|
| 2026-05-06 16:18 | 31.40325 | -9.68751 | 353 ft | 0 kts | 246° |
| 2026-05-06 16:21 | 31.40331 | -9.68737 | 359 ft | 2 kts | 248° |
| 2026-05-06 16:21 | 31.40337 | -9.68719 | 362 ft | 2 kts | 249° |
| 2026-05-06 16:21 | 31.40343 | -9.68701 | 362 ft | 2 kts | 233° |
| 2026-05-06 16:21 | 31.40357 | -9.68690 | 362 ft | 2 kts | 179° |
| 2026-05-06 16:22 | 31.40371 | -9.68693 | 361 ft | 1 kts | 162° |
| 2026-05-06 16:22 | 31.40375 | -9.68694 | 361 ft | 0 kts | 160° |
| 2026-05-06 16:23 | 31.40366 | -9.68691 | 360 ft | 3 kts | 159° |
| 2026-05-06 16:23 | 31.40340 | -9.68679 | 362 ft | 5 kts | 159° |
| 2026-05-06 16:23 | 31.40305 | -9.68663 | 356 ft | 6 kts | 159° |
| 2026-05-06 16:24 | 31.40262 | -9.68643 | 360 ft | 7 kts | 159° |
| 2026-05-06 16:24 | 31.40211 | -9.68621 | 359 ft | 8 kts | 159° |
| 2026-05-06 16:24 | 31.40154 | -9.68595 | 364 ft | 9 kts | 159° |
| 2026-05-06 16:24 | 31.40100 | -9.68552 | 365 ft | 10 kts | 124° |
| 2026-05-06 16:25 | 31.40077 | -9.68468 | 369 ft | 12 kts | 105° |
| 2026-05-06 16:25 | 31.40044 | -9.68364 | 369 ft | 14 kts | 133° |
| 2026-05-06 16:25 | 31.39959 | -9.68315 | 374 ft | 13 kts | 159° |
| 2026-05-06 16:25 | 31.39874 | -9.68277 | 379 ft | 12 kts | 159° |
| 2026-05-06 16:26 | 31.39796 | -9.68241 | 383 ft | 12 kts | 158° |
| 2026-05-06 16:26 | 31.39715 | -9.68204 | 388 ft | 13 kts | 159° |
| 2026-05-06 16:26 | 31.39627 | -9.68164 | 392 ft | 14 kts | 159° |
| 2026-05-06 16:26 | 31.39534 | -9.68123 | 390 ft | 16 kts | 159° |
| 2026-05-06 16:27 | 31.39423 | -9.68073 | 398 ft | 18 kts | 157° |
| 2026-05-06 16:27 | 31.39295 | -9.68016 | 404 ft | 21 kts | 161° |
| 2026-05-06 16:27 | 31.39150 | -9.67951 | 411 ft | 23 kts | 158° |
| 2026-05-06 16:27 | 31.38993 | -9.67878 | 417 ft | 25 kts | 158° |
| 2026-05-06 16:28 | 31.38870 | -9.67847 | 423 ft | 14 kts | 187° |
| 2026-05-06 16:28 | 31.38848 | -9.67817 | 428 ft | 1 kts | 20° |
| 2026-05-06 16:28 | 31.38880 | -9.67826 | 420 ft | 9 kts | 338° |
| 2026-05-06 16:28 | 31.39116 | -9.67932 | 413 ft | 71 kts | 339° |
| 2026-05-06 16:29 | 31.39774 | -9.68241 | 384 ft | 129 kts | 341° |
| 2026-05-06 16:29 | 31.40725 | -9.68655 | 612 ft | 154 kts | 341° |
| 2026-05-06 16:29 | 31.41742 | -9.69119 | 1208 ft | 159 kts | 340° |
| 2026-05-06 16:29 | 31.42761 | -9.69587 | 1976 ft | 156 kts | 341° |
| 2026-05-06 16:30 | 31.43809 | -9.70047 | 2703 ft | 159 kts | 342° |
| 2026-05-06 16:30 | 31.44498 | -9.70363 | 3098 ft | 162 kts | 342° |
| 2026-05-06 16:30 | 31.45939 | -9.70970 | 3815 ft | 169 kts | 347° |
| 2026-05-06 16:30 | 31.47140 | -9.70888 | 4206 ft | 183 kts | 24° |
| 2026-05-06 16:31 | 31.48187 | -9.69974 | 4646 ft | 195 kts | 41° |
| 2026-05-06 16:31 | 31.49262 | -9.68875 | 4980 ft | 215 kts | 40° |
| 2026-05-06 16:31 | 31.50434 | -9.67689 | 5447 ft | 229 kts | 40° |
| 2026-05-06 16:31 | 31.51665 | -9.66449 | 6100 ft | 236 kts | 39° |
| 2026-05-06 16:32 | 31.52926 | -9.65183 | 6808 ft | 241 kts | 39° |
| 2026-05-06 16:32 | 31.54214 | -9.63891 | 7508 ft | 246 kts | 38° |
| 2026-05-06 16:32 | 31.55528 | -9.62571 | 8200 ft | 251 kts | 37° |
| 2026-05-06 16:32 | 31.56859 | -9.61229 | 8927 ft | 254 kts | 37° |
| 2026-05-06 16:33 | 31.58209 | -9.59868 | 9664 ft | 259 kts | 37° |
| 2026-05-06 16:33 | 31.59620 | -9.58451 | 10144 ft | 273 kts | 37° |
| 2026-05-06 16:33 | 31.61104 | -9.56961 | 10603 ft | 289 kts | 38° |
| 2026-05-06 16:34 | 31.64338 | -9.53710 | 11397 ft | 323 kts | 38° |
| 2026-05-06 16:34 | 31.66083 | -9.51952 | 11831 ft | 337 kts | 38° |
| 2026-05-06 16:34 | 31.67874 | -9.50140 | 12489 ft | 343 kts | 38° |
| 2026-05-06 16:34 | 31.69692 | -9.48299 | 13162 ft | 347 kts | 38° |
| 2026-05-06 16:35 | 31.71535 | -9.46433 | 13828 ft | 352 kts | 38° |
| 2026-05-06 16:35 | 31.73400 | -9.44545 | 14420 ft | 356 kts | 38° |
| 2026-05-06 16:35 | 31.75289 | -9.42632 | 15017 ft | 361 kts | 38° |
| 2026-05-06 16:35 | 31.77201 | -9.40699 | 15621 ft | 365 kts | 37° |
| 2026-05-06 16:36 | 31.79162 | -9.38714 | 16216 ft | 369 kts | 38° |
| 2026-05-06 16:36 | 31.81110 | -9.36725 | 16778 ft | 373 kts | 37° |
| 2026-05-06 16:36 | 31.83103 | -9.34753 | 17315 ft | 377 kts | 36° |
| 2026-05-06 16:36 | 31.85143 | -9.32802 | 17912 ft | 380 kts | 34° |
| 2026-05-06 16:37 | 31.87218 | -9.30853 | 18436 ft | 384 kts | 34° |
| 2026-05-06 16:37 | 31.89322 | -9.28888 | 18949 ft | 388 kts | 34° |
| 2026-05-06 16:37 | 31.91449 | -9.26902 | 19458 ft | 392 kts | 34° |
| 2026-05-06 16:37 | 31.93594 | -9.24888 | 19981 ft | 396 kts | 34° |
| 2026-05-06 16:38 | 31.95751 | -9.22847 | 20495 ft | 400 kts | 34° |
| 2026-05-06 16:38 | 31.97926 | -9.20775 | 20988 ft | 404 kts | 34° |
| 2026-05-06 16:38 | 32.00119 | -9.18678 | 21476 ft | 408 kts | 34° |
| 2026-05-06 16:38 | 32.02328 | -9.16562 | 21960 ft | 411 kts | 34° |
| 2026-05-06 16:39 | 32.04563 | -9.14429 | 22434 ft | 415 kts | 33° |
| 2026-05-06 16:39 | 32.06970 | -9.12592 | 22916 ft | 413 kts | 25° |
| 2026-05-06 16:39 | 32.09452 | -9.10845 | 23377 ft | 417 kts | 25° |
| 2026-05-06 16:39 | 32.11951 | -9.09080 | 23813 ft | 421 kts | 25° |
| 2026-05-06 16:40 | 32.14473 | -9.07293 | 24212 ft | 424 kts | 25° |
| 2026-05-06 16:40 | 32.17013 | -9.05489 | 24606 ft | 428 kts | 25° |
| 2026-05-06 16:40 | 32.19572 | -9.03671 | 25003 ft | 432 kts | 25° |
| 2026-05-06 16:40 | 32.22178 | -9.01821 | 25173 ft | 443 kts | 25° |
| 2026-05-06 16:41 | 32.24852 | -8.99922 | 25299 ft | 454 kts | 26° |
| 2026-05-06 16:41 | 32.27589 | -8.97975 | 25418 ft | 464 kts | 26° |
| 2026-05-06 16:41 | 32.30386 | -8.95981 | 25542 ft | 474 kts | 26° |
| 2026-05-06 16:41 | 32.33236 | -8.93945 | 25659 ft | 482 kts | 26° |
| 2026-05-06 16:42 | 32.36129 | -8.91877 | 25782 ft | 490 kts | 26° |
| 2026-05-06 16:42 | 32.39066 | -8.89781 | 25907 ft | 497 kts | 26° |
| 2026-05-06 16:42 | 32.42052 | -8.87652 | 26025 ft | 504 kts | 26° |
| 2026-05-06 16:42 | 32.45006 | -8.85546 | 26143 ft | 510 kts | 26° |
| 2026-05-06 16:43 | 32.47067 | -8.84074 | 26236 ft | 513 kts | 26° |
| 2026-05-06 16:43 | 32.50138 | -8.81878 | 26464 ft | 516 kts | 26° |
| 2026-05-06 16:43 | 32.53206 | -8.79677 | 26808 ft | 515 kts | 26° |
| 2026-05-06 16:43 | 32.56272 | -8.77471 | 27177 ft | 515 kts | 26° |
| 2026-05-06 16:44 | 32.59336 | -8.75267 | 27554 ft | 515 kts | 26° |
| 2026-05-06 16:44 | 32.62392 | -8.73070 | 27915 ft | 515 kts | 26° |
| 2026-05-06 16:44 | 32.65461 | -8.70864 | 28302 ft | 515 kts | 26° |
| 2026-05-06 16:44 | 32.68525 | -8.68661 | 28695 ft | 515 kts | 26° |
| 2026-05-06 16:45 | 32.71586 | -8.66462 | 29081 ft | 514 kts | 26° |
| 2026-05-06 16:45 | 32.74651 | -8.64260 | 29475 ft | 514 kts | 26° |
| 2026-05-06 16:45 | 32.77707 | -8.62060 | 29873 ft | 514 kts | 26° |
| 2026-05-06 16:45 | 32.80764 | -8.59858 | 30231 ft | 514 kts | 26° |
| 2026-05-06 16:46 | 32.83821 | -8.57655 | 30567 ft | 514 kts | 26° |
| 2026-05-06 16:46 | 32.86879 | -8.55448 | 30901 ft | 514 kts | 26° |
| 2026-05-06 16:46 | 32.89932 | -8.53242 | 31243 ft | 514 kts | 26° |
| 2026-05-06 16:46 | 32.92985 | -8.51031 | 31579 ft | 513 kts | 26° |
| 2026-05-06 16:47 | 32.96032 | -8.48821 | 31927 ft | 513 kts | 26° |
| 2026-05-06 16:47 | 32.99080 | -8.46608 | 32273 ft | 513 kts | 26° |
| 2026-05-06 16:47 | 33.02116 | -8.44404 | 32629 ft | 512 kts | 26° |
| 2026-05-06 16:47 | 33.05162 | -8.42189 | 32984 ft | 512 kts | 26° |
| 2026-05-06 16:48 | 33.07986 | -8.40135 | 33314 ft | 512 kts | 26° |
| 2026-05-06 16:48 | 33.11036 | -8.37918 | 33671 ft | 512 kts | 26° |
| 2026-05-06 16:48 | 33.14112 | -8.35682 | 34016 ft | 511 kts | 26° |
| 2026-05-06 16:48 | 33.17108 | -8.33501 | 34326 ft | 511 kts | 26° |
| 2026-05-06 16:49 | 33.20168 | -8.31268 | 34663 ft | 509 kts | 26° |
| 2026-05-06 16:49 | 33.23146 | -8.29092 | 34995 ft | 508 kts | 26° |
| 2026-05-06 16:49 | 33.26195 | -8.26863 | 35327 ft | 506 kts | 26° |
| 2026-05-06 16:49 | 33.29204 | -8.24666 | 35645 ft | 505 kts | 26° |
| 2026-05-06 16:50 | 33.32197 | -8.22483 | 35953 ft | 503 kts | 26° |
| 2026-05-06 16:50 | 33.35180 | -8.20302 | 36243 ft | 502 kts | 26° |
| 2026-05-06 16:50 | 33.38148 | -8.18124 | 36528 ft | 501 kts | 26° |
| 2026-05-06 16:50 | 33.41121 | -8.15941 | 36797 ft | 500 kts | 26° |
| 2026-05-06 16:51 | 33.44091 | -8.13762 | 37057 ft | 499 kts | 26° |
| 2026-05-06 16:51 | 33.47050 | -8.11593 | 37304 ft | 499 kts | 26° |
| 2026-05-06 16:51 | 33.50011 | -8.09424 | 37484 ft | 500 kts | 26° |
| 2026-05-06 16:51 | 33.52979 | -8.07247 | 37624 ft | 501 kts | 26° |
| 2026-05-06 16:52 | 33.55854 | -8.05131 | 37755 ft | 502 kts | 26° |
| 2026-05-06 16:52 | 33.58835 | -8.02932 | 37919 ft | 503 kts | 26° |
| 2026-05-06 16:52 | 33.61820 | -8.00729 | 37954 ft | 506 kts | 26° |
| 2026-05-06 16:53 | 33.67819 | -7.96297 | 37943 ft | 508 kts | 26° |
| 2026-05-06 16:53 | 33.73825 | -7.91841 | 37947 ft | 507 kts | 26° |
| 2026-05-06 16:54 | 33.79821 | -7.87407 | 37948 ft | 506 kts | 26° |
| 2026-05-06 16:54 | 33.85817 | -7.82969 | 37953 ft | 506 kts | 26° |
| 2026-05-06 16:55 | 33.91796 | -7.78526 | 37956 ft | 505 kts | 26° |
| 2026-05-06 16:55 | 33.97767 | -7.74078 | 37959 ft | 504 kts | 27° |
| 2026-05-06 16:56 | 34.03767 | -7.69607 | 37959 ft | 504 kts | 27° |
| 2026-05-06 16:56 | 34.09719 | -7.65163 | 37959 ft | 503 kts | 27° |
| 2026-05-06 16:57 | 34.15659 | -7.60709 | 37955 ft | 502 kts | 27° |
| 2026-05-06 16:57 | 34.21591 | -7.56265 | 37956 ft | 501 kts | 27° |
| 2026-05-06 16:58 | 34.27511 | -7.51820 | 37955 ft | 501 kts | 27° |
| 2026-05-06 16:58 | 34.33422 | -7.47373 | 37954 ft | 500 kts | 27° |
| 2026-05-06 16:59 | 34.39323 | -7.42935 | 37954 ft | 499 kts | 27° |
| 2026-05-06 16:59 | 34.45213 | -7.38488 | 37952 ft | 499 kts | 27° |
| 2026-05-06 17:00 | 34.51097 | -7.34038 | 37950 ft | 498 kts | 27° |
| 2026-05-06 17:00 | 34.56959 | -7.29600 | 37954 ft | 497 kts | 27° |
| 2026-05-06 17:01 | 34.62833 | -7.25148 | 37948 ft | 497 kts | 27° |
| 2026-05-06 17:01 | 34.68691 | -7.20700 | 37946 ft | 496 kts | 28° |
| 2026-05-06 17:02 | 34.74539 | -7.16254 | 37950 ft | 496 kts | 28° |
| 2026-05-06 17:02 | 34.80385 | -7.11800 | 37950 ft | 495 kts | 28° |
| 2026-05-06 17:03 | 34.86252 | -7.07321 | 37948 ft | 495 kts | 28° |
| 2026-05-06 17:03 | 34.92079 | -7.02865 | 37946 ft | 494 kts | 28° |
| 2026-05-06 17:04 | 34.97902 | -6.98407 | 37943 ft | 494 kts | 28° |
| 2026-05-06 17:04 | 35.00811 | -6.96178 | 38131 ft | 494 kts | 28° |
| 2026-05-06 17:04 | 35.03721 | -6.93942 | 37942 ft | 494 kts | 28° |
| 2026-05-06 17:05 | 35.09537 | -6.89467 | 37941 ft | 494 kts | 28° |
| 2026-05-06 17:05 | 35.15342 | -6.84984 | 37936 ft | 493 kts | 28° |
| 2026-05-06 17:06 | 35.21139 | -6.80507 | 37933 ft | 493 kts | 28° |
| 2026-05-06 17:06 | 35.26939 | -6.76031 | 37929 ft | 493 kts | 28° |
| 2026-05-06 17:07 | 35.32653 | -6.71381 | 37925 ft | 496 kts | 37° |
| 2026-05-06 17:07 | 35.35099 | -6.68391 | 37937 ft | 501 kts | 49° |
| 2026-05-06 17:07 | 35.37087 | -6.64871 | 37928 ft | 503 kts | 58° |
| 2026-05-06 17:08 | 35.40625 | -6.57456 | 37925 ft | 504 kts | 58° |
| 2026-05-06 17:08 | 35.44163 | -6.50036 | 37919 ft | 504 kts | 58° |
| 2026-05-06 17:09 | 35.47654 | -6.42506 | 37923 ft | 504 kts | 59° |
| 2026-05-06 17:09 | 35.51013 | -6.34953 | 37917 ft | 505 kts | 60° |
| 2026-05-06 17:10 | 35.54366 | -6.27380 | 37917 ft | 505 kts | 60° |
| 2026-05-06 17:10 | 35.57750 | -6.19819 | 37911 ft | 505 kts | 59° |
| 2026-05-06 17:11 | 35.61138 | -6.12275 | 37915 ft | 504 kts | 60° |
| 2026-05-06 17:11 | 35.64519 | -6.04712 | 37919 ft | 505 kts | 60° |
| 2026-05-06 17:12 | 35.67889 | -5.97145 | 37922 ft | 505 kts | 60° |
| 2026-05-06 17:12 | 35.71255 | -5.89558 | 37919 ft | 505 kts | 60° |
| 2026-05-06 17:13 | 35.74617 | -5.81961 | 37916 ft | 505 kts | 60° |
| 2026-05-06 17:13 | 35.77976 | -5.74369 | 37910 ft | 505 kts | 60° |
| 2026-05-06 17:14 | 35.81337 | -5.66752 | 37902 ft | 506 kts | 60° |
| 2026-05-06 17:14 | 35.84691 | -5.59136 | 37896 ft | 506 kts | 60° |
| 2026-05-06 17:15 | 35.88025 | -5.51549 | 37894 ft | 506 kts | 60° |
| 2026-05-06 17:15 | 35.90652 | -5.45555 | 37895 ft | 506 kts | 60° |
| 2026-05-06 17:16 | 35.94009 | -5.37859 | 37880 ft | 507 kts | 60° |
| 2026-05-06 17:16 | 35.97355 | -5.30192 | 37885 ft | 507 kts | 60° |
| 2026-05-06 17:17 | 36.00700 | -5.22530 | 37882 ft | 507 kts | 60° |
| 2026-05-06 17:17 | 36.04030 | -5.14847 | 37882 ft | 507 kts | 60° |
| 2026-05-06 17:18 | 36.07358 | -5.07146 | 37888 ft | 508 kts | 60° |
| 2026-05-06 17:18 | 36.10686 | -4.99444 | 37882 ft | 508 kts | 60° |
| 2026-05-06 17:19 | 36.14028 | -4.91734 | 37878 ft | 508 kts | 58° |
| 2026-05-06 17:19 | 36.16036 | -4.88157 | 37878 ft | 505 kts | 46° |
| 2026-05-06 17:19 | 36.18445 | -4.85007 | 37873 ft | 504 kts | 42° |
| 2026-05-06 17:20 | 36.23360 | -4.78817 | 37874 ft | 504 kts | 42° |
| 2026-05-06 17:20 | 36.28271 | -4.72608 | 37876 ft | 505 kts | 43° |
| 2026-05-06 17:21 | 36.33210 | -4.66329 | 37879 ft | 505 kts | 43° |
| 2026-05-06 17:21 | 36.38078 | -4.60111 | 37879 ft | 506 kts | 43° |
| 2026-05-06 17:22 | 36.43010 | -4.53809 | 37882 ft | 505 kts | 43° |
| 2026-05-06 17:22 | 36.47907 | -4.47545 | 37884 ft | 506 kts | 43° |
| 2026-05-06 17:23 | 36.52814 | -4.41257 | 37887 ft | 506 kts | 43° |
| 2026-05-06 17:23 | 36.57710 | -4.34982 | 37887 ft | 506 kts | 43° |
| 2026-05-06 17:24 | 36.62545 | -4.28757 | 37890 ft | 507 kts | 43° |
| 2026-05-06 17:24 | 36.67442 | -4.22451 | 37885 ft | 507 kts | 43° |
| 2026-05-06 17:25 | 36.72341 | -4.16124 | 37889 ft | 507 kts | 43° |
| 2026-05-06 17:25 | 36.77224 | -4.09802 | 37886 ft | 507 kts | 43° |
| 2026-05-06 17:26 | 36.81925 | -4.03711 | 37888 ft | 507 kts | 43° |
| 2026-05-06 17:26 | 36.86745 | -3.97450 | 37890 ft | 508 kts | 43° |
| 2026-05-06 17:27 | 36.91358 | -3.91446 | 37889 ft | 508 kts | 43° |
| 2026-05-06 17:27 | 36.95414 | -3.86157 | 37892 ft | 508 kts | 43° |
| 2026-05-06 17:28 | 37.00276 | -3.79819 | 37977 ft | 512 kts | 44° |
| 2026-05-06 17:28 | 37.02745 | -3.76595 | 37871 ft | 514 kts | 44° |
| 2026-05-06 17:28 | 37.05205 | -3.73369 | 37894 ft | 515 kts | 44° |
| 2026-05-06 17:29 | 37.10141 | -3.66891 | 37894 ft | 514 kts | 44° |
| 2026-05-06 17:29 | 37.15090 | -3.60391 | 37895 ft | 514 kts | 44° |
| 2026-05-06 17:30 | 37.20001 | -3.53925 | 37897 ft | 514 kts | 44° |
| 2026-05-06 17:30 | 37.24927 | -3.47426 | 37893 ft | 514 kts | 44° |
| 2026-05-06 17:31 | 37.29846 | -3.40920 | 37888 ft | 514 kts | 44° |
| 2026-05-06 17:31 | 37.34770 | -3.34393 | 37887 ft | 514 kts | 44° |
| 2026-05-06 17:32 | 37.39685 | -3.27870 | 37887 ft | 514 kts | 44° |
| 2026-05-06 17:32 | 37.44604 | -3.21343 | 37880 ft | 514 kts | 44° |
| 2026-05-06 17:33 | 37.49513 | -3.14802 | 37882 ft | 514 kts | 45° |
| 2026-05-06 17:33 | 37.54417 | -3.08244 | 37877 ft | 514 kts | 44° |
| 2026-05-06 17:34 | 37.59318 | -3.01683 | 37878 ft | 514 kts | 45° |
| 2026-05-06 17:34 | 37.64212 | -2.95121 | 37879 ft | 514 kts | 45° |
| 2026-05-06 17:35 | 37.69107 | -2.88542 | 37880 ft | 514 kts | 45° |
| 2026-05-06 17:35 | 37.73996 | -2.81952 | 37887 ft | 514 kts | 45° |
| 2026-05-06 17:36 | 37.81350 | -2.72032 | 37890 ft | 513 kts | 45° |
| 2026-05-06 17:36 | 37.86231 | -2.65431 | 37916 ft | 514 kts | 45° |
| 2026-05-06 17:37 | 37.91107 | -2.58821 | 37898 ft | 513 kts | 45° |
| 2026-05-06 17:37 | 37.95980 | -2.52198 | 37915 ft | 514 kts | 45° |
| 2026-05-06 17:38 | 38.00726 | -2.45425 | 37925 ft | 515 kts | 48° |
| 2026-05-06 17:38 | 38.05235 | -2.38372 | 37916 ft | 515 kts | 50° |
| 2026-05-06 17:39 | 38.09685 | -2.31261 | 37914 ft | 515 kts | 49° |
| 2026-05-06 17:39 | 38.14199 | -2.24205 | 37930 ft | 514 kts | 49° |
| 2026-05-06 17:40 | 38.18746 | -2.17195 | 37924 ft | 514 kts | 49° |
| 2026-05-06 17:40 | 38.23287 | -2.10173 | 37922 ft | 514 kts | 49° |
| 2026-05-06 17:41 | 38.27805 | -2.03136 | 37928 ft | 514 kts | 49° |
| 2026-05-06 17:41 | 38.32317 | -1.96086 | 37925 ft | 513 kts | 49° |
| 2026-05-06 17:42 | 38.36820 | -1.89026 | 37928 ft | 513 kts | 49° |
| 2026-05-06 17:42 | 38.41349 | -1.81914 | 37930 ft | 513 kts | 49° |
| 2026-05-06 17:43 | 38.45830 | -1.74866 | 37932 ft | 514 kts | 49° |
| 2026-05-06 17:43 | 38.50317 | -1.67784 | 37933 ft | 514 kts | 49° |
| 2026-05-06 17:44 | 38.54821 | -1.60676 | 37930 ft | 514 kts | 49° |
| 2026-05-06 17:44 | 38.59314 | -1.53576 | 37940 ft | 514 kts | 49° |
| 2026-05-06 17:45 | 38.63805 | -1.46458 | 37938 ft | 514 kts | 49° |
| 2026-05-06 17:45 | 38.68248 | -1.39381 | 37947 ft | 514 kts | 49° |
| 2026-05-06 17:46 | 38.72724 | -1.32229 | 37949 ft | 514 kts | 49° |
| 2026-05-06 17:46 | 38.77200 | -1.25073 | 37944 ft | 514 kts | 49° |
| 2026-05-06 17:47 | 38.81658 | -1.17945 | 37948 ft | 514 kts | 49° |
| 2026-05-06 17:47 | 38.86116 | -1.10796 | 37954 ft | 513 kts | 49° |
| 2026-05-06 17:48 | 38.89849 | -1.04800 | 37950 ft | 513 kts | 49° |
| 2026-05-06 17:48 | 38.94296 | -0.97644 | 37947 ft | 512 kts | 49° |
| 2026-05-06 17:49 | 38.98729 | -0.90478 | 37946 ft | 512 kts | 49° |
| 2026-05-06 17:49 | 39.03158 | -0.83308 | 37950 ft | 512 kts | 49° |
| 2026-05-06 17:50 | 39.07946 | -0.76612 | 37949 ft | 505 kts | 33° |
| 2026-05-06 17:50 | 39.13846 | -0.71830 | 37947 ft | 501 kts | 26° |
| 2026-05-06 17:51 | 39.19835 | -0.67222 | 37948 ft | 501 kts | 26° |
| 2026-05-06 17:51 | 39.25803 | -0.62584 | 37944 ft | 501 kts | 27° |
| 2026-05-06 17:52 | 39.31764 | -0.57940 | 37945 ft | 500 kts | 27° |
| 2026-05-06 17:52 | 39.37726 | -0.53305 | 37956 ft | 500 kts | 27° |
| 2026-05-06 17:53 | 39.43658 | -0.48678 | 37947 ft | 500 kts | 27° |
| 2026-05-06 17:53 | 39.49606 | -0.44013 | 37941 ft | 500 kts | 27° |
| 2026-05-06 17:54 | 39.55551 | -0.39348 | 37950 ft | 500 kts | 27° |
| 2026-05-06 17:54 | 39.61493 | -0.34681 | 37951 ft | 499 kts | 27° |
| 2026-05-06 17:55 | 39.67476 | -0.29971 | 37942 ft | 500 kts | 27° |
| 2026-05-06 17:55 | 39.73408 | -0.25286 | 37940 ft | 499 kts | 27° |
| 2026-05-06 17:56 | 39.79340 | -0.20590 | 37948 ft | 499 kts | 27° |
| 2026-05-06 17:56 | 39.85269 | -0.15893 | 37946 ft | 499 kts | 27° |
| 2026-05-06 17:57 | 39.91197 | -0.11186 | 37954 ft | 499 kts | 27° |
| 2026-05-06 17:57 | 39.97128 | -0.06468 | 37957 ft | 499 kts | 27° |
| 2026-05-06 17:58 | 40.03054 | -0.01757 | 37963 ft | 499 kts | 27° |
| 2026-05-06 17:58 | 40.08980 | 0.02975 | 37973 ft | 499 kts | 27° |
| 2026-05-06 17:59 | 40.14899 | 0.07721 | 37977 ft | 499 kts | 27° |
| 2026-05-06 17:59 | 40.20823 | 0.12469 | 37974 ft | 499 kts | 27° |
| 2026-05-06 18:00 | 40.27054 | 0.16135 | 37974 ft | 489 kts | 11° |
| 2026-05-06 18:00 | 40.33560 | 0.18603 | 37956 ft | 478 kts | 11° |
| 2026-05-06 18:01 | 40.36723 | 0.19774 | 37826 ft | 466 kts | 10° |
| 2026-05-06 18:01 | 40.39818 | 0.20894 | 37517 ft | 459 kts | 9° |
| 2026-05-06 18:01 | 40.42897 | 0.21989 | 36948 ft | 459 kts | 9° |
| 2026-05-06 18:01 | 40.45983 | 0.23080 | 36335 ft | 460 kts | 9° |
| 2026-05-06 18:02 | 40.49078 | 0.24176 | 35709 ft | 461 kts | 8° |
| 2026-05-06 18:02 | 40.52141 | 0.25479 | 35132 ft | 467 kts | 18° |
| 2026-05-06 18:02 | 40.55032 | 0.27428 | 34816 ft | 467 kts | 27° |
| 2026-05-06 18:02 | 40.57640 | 0.29941 | 34588 ft | 464 kts | 37° |
| 2026-05-06 18:03 | 40.59944 | 0.32981 | 34244 ft | 463 kts | 46° |
| 2026-05-06 18:03 | 40.62040 | 0.36172 | 33818 ft | 460 kts | 46° |
| 2026-05-06 18:03 | 40.64129 | 0.39338 | 33342 ft | 457 kts | 45° |
| 2026-05-06 18:03 | 40.66218 | 0.42489 | 32892 ft | 454 kts | 45° |
| 2026-05-06 18:04 | 40.68292 | 0.45615 | 32474 ft | 451 kts | 46° |
| 2026-05-06 18:04 | 40.70343 | 0.48714 | 32075 ft | 448 kts | 46° |
| 2026-05-06 18:04 | 40.72305 | 0.51684 | 31698 ft | 445 kts | 46° |
| 2026-05-06 18:04 | 40.74331 | 0.54754 | 31324 ft | 442 kts | 46° |
| 2026-05-06 18:05 | 40.76345 | 0.57808 | 30966 ft | 440 kts | 46° |
| 2026-05-06 18:05 | 40.78343 | 0.60847 | 30631 ft | 437 kts | 46° |
| 2026-05-06 18:05 | 40.80326 | 0.63864 | 30293 ft | 434 kts | 46° |
| 2026-05-06 18:05 | 40.82226 | 0.66760 | 29983 ft | 431 kts | 46° |
| 2026-05-06 18:06 | 40.84202 | 0.69778 | 29589 ft | 428 kts | 46° |
| 2026-05-06 18:06 | 40.86156 | 0.72763 | 29031 ft | 430 kts | 46° |
| 2026-05-06 18:06 | 40.88117 | 0.75756 | 28477 ft | 431 kts | 46° |
| 2026-05-06 18:06 | 40.90053 | 0.78717 | 27935 ft | 422 kts | 46° |
| 2026-05-06 18:07 | 40.91948 | 0.81622 | 27401 ft | 412 kts | 46° |
| 2026-05-06 18:07 | 40.93796 | 0.84460 | 26886 ft | 404 kts | 46° |
| 2026-05-06 18:07 | 40.95619 | 0.87264 | 26377 ft | 401 kts | 46° |
| 2026-05-06 18:07 | 40.97434 | 0.90052 | 25879 ft | 397 kts | 46° |
| 2026-05-06 18:08 | 40.99224 | 0.92800 | 25393 ft | 393 kts | 46° |
| 2026-05-06 18:08 | 41.00942 | 0.95444 | 24923 ft | 389 kts | 46° |
| 2026-05-06 18:08 | 41.02713 | 0.98168 | 24453 ft | 389 kts | 46° |
| 2026-05-06 18:08 | 41.04461 | 1.00857 | 23983 ft | 381 kts | 45° |
| 2026-05-06 18:09 | 41.06188 | 1.03519 | 23514 ft | 379 kts | 45° |
| 2026-05-06 18:09 | 41.07892 | 1.06149 | 22977 ft | 375 kts | 46° |
| 2026-05-06 18:09 | 41.09578 | 1.08758 | 22435 ft | 370 kts | 46° |
| 2026-05-06 18:09 | 41.11239 | 1.11333 | 21903 ft | 365 kts | 46° |
| 2026-05-06 18:10 | 41.12883 | 1.13875 | 21372 ft | 360 kts | 46° |
| 2026-05-06 18:10 | 41.14522 | 1.16409 | 20861 ft | 355 kts | 47° |
| 2026-05-06 18:10 | 41.15950 | 1.18985 | 20369 ft | 352 kts | 53° |
| 2026-05-06 18:10 | 41.17339 | 1.21699 | 19863 ft | 348 kts | 53° |
| 2026-05-06 18:11 | 41.18670 | 1.24297 | 19384 ft | 343 kts | 53° |
| 2026-05-06 18:11 | 41.20004 | 1.26893 | 18892 ft | 338 kts | 53° |
| 2026-05-06 18:11 | 41.21321 | 1.29451 | 18427 ft | 331 kts | 53° |
| 2026-05-06 18:11 | 41.22603 | 1.31940 | 17914 ft | 323 kts | 53° |
| 2026-05-06 18:12 | 41.23859 | 1.34382 | 17376 ft | 317 kts | 53° |
| 2026-05-06 18:12 | 41.25083 | 1.36769 | 16849 ft | 311 kts | 54° |
| 2026-05-06 18:12 | 41.26294 | 1.39135 | 16317 ft | 307 kts | 54° |
| 2026-05-06 18:12 | 41.27481 | 1.41456 | 15818 ft | 304 kts | 54° |
| 2026-05-06 18:13 | 41.28666 | 1.43776 | 15309 ft | 301 kts | 54° |
| 2026-05-06 18:13 | 41.29840 | 1.46073 | 14816 ft | 299 kts | 54° |
| 2026-05-06 18:13 | 41.31005 | 1.48357 | 14329 ft | 297 kts | 54° |
| 2026-05-06 18:13 | 41.32156 | 1.50617 | 13850 ft | 294 kts | 54° |
| 2026-05-06 18:14 | 41.33295 | 1.52852 | 13330 ft | 292 kts | 54° |
| 2026-05-06 18:14 | 41.34334 | 1.55056 | 12834 ft | 290 kts | 62° |
| 2026-05-06 18:14 | 41.35141 | 1.57510 | 12443 ft | 290 kts | 66° |
| 2026-05-06 18:14 | 41.35922 | 1.59992 | 12119 ft | 289 kts | 65° |
| 2026-05-06 18:15 | 41.36701 | 1.62445 | 11798 ft | 287 kts | 65° |
| 2026-05-06 18:15 | 41.37480 | 1.64882 | 11505 ft | 285 kts | 65° |
| 2026-05-06 18:15 | 41.38254 | 1.67307 | 11188 ft | 284 kts | 65° |
| 2026-05-06 18:15 | 41.39021 | 1.69728 | 10884 ft | 283 kts | 65° |
| 2026-05-06 18:16 | 41.39781 | 1.72132 | 10592 ft | 281 kts | 65° |
| 2026-05-06 18:16 | 41.40537 | 1.74521 | 10291 ft | 279 kts | 65° |
| 2026-05-06 18:16 | 41.41294 | 1.76912 | 9983 ft | 278 kts | 65° |
| 2026-05-06 18:16 | 41.41914 | 1.78870 | 9736 ft | 277 kts | 65° |
| 2026-05-06 18:17 | 41.42574 | 1.80966 | 9466 ft | 275 kts | 65° |
| 2026-05-06 18:17 | 41.43311 | 1.83305 | 9154 ft | 274 kts | 65° |
| 2026-05-06 18:17 | 41.44047 | 1.85641 | 8847 ft | 272 kts | 65° |
| 2026-05-06 18:17 | 41.44777 | 1.87957 | 8570 ft | 270 kts | 65° |
| 2026-05-06 18:18 | 41.45494 | 1.90233 | 8434 ft | 263 kts | 65° |
| 2026-05-06 18:18 | 41.46195 | 1.92461 | 8221 ft | 258 kts | 65° |
| 2026-05-06 18:18 | 41.46885 | 1.94656 | 7920 ft | 257 kts | 65° |
| 2026-05-06 18:18 | 41.47573 | 1.96850 | 7621 ft | 255 kts | 65° |
| 2026-05-06 18:19 | 41.48255 | 1.99032 | 7316 ft | 254 kts | 65° |
| 2026-05-06 18:19 | 41.48929 | 2.01194 | 7028 ft | 253 kts | 65° |
| 2026-05-06 18:19 | 41.49604 | 2.03350 | 6717 ft | 252 kts | 65° |
| 2026-05-06 18:19 | 41.50276 | 2.05493 | 6417 ft | 251 kts | 65° |
| 2026-05-06 18:20 | 41.50867 | 2.07678 | 6087 ft | 250 kts | 77° |
| 2026-05-06 18:20 | 41.51055 | 2.09222 | 5971 ft | 248 kts | 79° |
| 2026-05-06 18:20 | 41.51832 | 2.12088 | 5941 ft | 250 kts | 63° |
| 2026-05-06 18:20 | 41.52333 | 2.13505 | 5948 ft | 249 kts | 62° |
| 2026-05-06 18:21 | 41.53086 | 2.15591 | 5948 ft | 250 kts | 62° |
| 2026-05-06 18:21 | 41.53775 | 2.17722 | 5841 ft | 251 kts | 76° |
| 2026-05-06 18:21 | 41.53765 | 2.19998 | 5622 ft | 246 kts | 105° |
| 2026-05-06 18:21 | 41.53296 | 2.21884 | 5442 ft | 240 kts | 111° |
| 2026-05-06 18:22 | 41.52693 | 2.23946 | 5143 ft | 238 kts | 112° |
| 2026-05-06 18:22 | 41.52083 | 2.25993 | 4852 ft | 237 kts | 112° |
| 2026-05-06 18:22 | 41.51497 | 2.27960 | 4552 ft | 235 kts | 112° |
| 2026-05-06 18:22 | 41.50907 | 2.29981 | 4239 ft | 233 kts | 112° |
| 2026-05-06 18:23 | 41.50330 | 2.31986 | 4006 ft | 228 kts | 112° |
| 2026-05-06 18:23 | 41.49757 | 2.33987 | 3942 ft | 231 kts | 112° |
| 2026-05-06 18:23 | 41.49141 | 2.35961 | 3942 ft | 231 kts | 124° |
| 2026-05-06 18:23 | 41.47997 | 2.37390 | 3945 ft | 226 kts | 158° |
| 2026-05-06 18:24 | 41.46504 | 2.38002 | 3952 ft | 224 kts | 170° |
| 2026-05-06 18:24 | 41.44979 | 2.38399 | 3951 ft | 223 kts | 172° |
| 2026-05-06 18:24 | 41.43446 | 2.38769 | 3954 ft | 223 kts | 172° |
| 2026-05-06 18:24 | 41.41914 | 2.39129 | 3952 ft | 224 kts | 172° |
| 2026-05-06 18:25 | 41.40380 | 2.39489 | 3951 ft | 224 kts | 172° |
| 2026-05-06 18:25 | 41.38840 | 2.39747 | 3881 ft | 220 kts | 183° |
| 2026-05-06 18:25 | 41.37429 | 2.39257 | 3721 ft | 205 kts | 215° |
| 2026-05-06 18:25 | 41.36502 | 2.37898 | 3428 ft | 199 kts | 246° |
| 2026-05-06 18:26 | 41.36284 | 2.36085 | 3071 ft | 200 kts | 278° |
| 2026-05-06 18:26 | 41.36853 | 2.34389 | 2951 ft | 208 kts | 309° |
| 2026-05-06 18:26 | 41.37764 | 2.32925 | 2949 ft | 206 kts | 294° |
| 2026-05-06 18:26 | 41.37921 | 2.31087 | 2954 ft | 200 kts | 254° |
| 2026-05-06 18:27 | 41.37427 | 2.29352 | 2944 ft | 201 kts | 243° |
| 2026-05-06 18:27 | 41.36790 | 2.27691 | 2951 ft | 202 kts | 241° |
| 2026-05-06 18:27 | 41.36139 | 2.26039 | 2938 ft | 202 kts | 240° |
| 2026-05-06 18:27 | 41.35427 | 2.24381 | 2469 ft | 212 kts | 240° |
| 2026-05-06 18:28 | 41.34755 | 2.22606 | 2079 ft | 216 kts | 242° |
| 2026-05-06 18:28 | 41.34123 | 2.20786 | 1769 ft | 216 kts | 244° |
| 2026-05-06 18:28 | 41.33515 | 2.18998 | 1470 ft | 201 kts | 243° |
| 2026-05-06 18:28 | 41.32983 | 2.17433 | 1206 ft | 171 kts | 243° |
| 2026-05-06 18:29 | 41.32512 | 2.16053 | 975 ft | 162 kts | 244° |
| 2026-05-06 18:29 | 41.32052 | 2.14709 | 750 ft | 155 kts | 243° |
| 2026-05-06 18:29 | 41.31636 | 2.13489 | 565 ft | 135 kts | 243° |
| 2026-05-06 18:29 | 41.31248 | 2.12354 | 384 ft | 134 kts | 242° |
| 2026-05-06 18:30 | 41.30875 | 2.11236 | 205 ft | 133 kts | 244° |
| 2026-05-06 18:30 | 41.30511 | 2.10181 | 46 ft | 133 kts | 243° |
| 2026-05-06 18:30 | 41.30203 | 2.09293 | 17 ft | 72 kts | 245° |
| 2026-05-06 18:30 | 41.30021 | 2.08801 | 22 ft | 34 kts | 244° |
| 2026-05-06 18:31 | 41.29896 | 2.08587 | 20 ft | 23 kts | 214° |